sensor_id;sensor_type;location;lat;lon;timestamp;temperature;humidity
610;DHT22;292;48.800;9.216;2023-02-01T00:01:23;6.80;75.40
610;DHT22;292;48.800;9.216;2023-02-01T00:03:50;6.80;75.40
610;DHT22;292;48.800;9.216;2023-02-01T00:06:17;6.80;75.20
610;DHT22;292;48.800;9.216;2023-02-01T00:08:44;6.80;75.40
610;DHT22;292;48.800;9.216;2023-02-01T00:11:13;6.80;75.50
610;DHT22;292;48.800;9.216;2023-02-01T00:13:41;6.70;75.70
610;DHT22;292;48.800;9.216;2023-02-01T00:16:10;6.70;75.70
610;DHT22;292;48.800;9.216;2023-02-01T00:18:38;6.70;75.70
610;DHT22;292;48.800;9.216;2023-02-01T00:21:05;6.70;75.80
610;DHT22;292;48.800;9.216;2023-02-01T00:23:34;6.60;75.80
610;DHT22;292;48.800;9.216;2023-02-01T00:26:01;6.60;76.00
610;DHT22;292;48.800;9.216;2023-02-01T00:28:31;6.60;76.10
610;DHT22;292;48.800;9.216;2023-02-01T00:30:58;6.60;76.20
610;DHT22;292;48.800;9.216;2023-02-01T00:33:25;6.60;76.40
610;DHT22;292;48.800;9.216;2023-02-01T00:35:56;6.50;76.50
610;DHT22;292;48.800;9.216;2023-02-01T00:38:24;6.50;76.70
610;DHT22;292;48.800;9.216;2023-02-01T00:40:51;6.50;76.70
610;DHT22;292;48.800;9.216;2023-02-01T00:43:18;6.40;76.80
610;DHT22;292;48.800;9.216;2023-02-01T00:45:47;6.40;77.10
610;DHT22;292;48.800;9.216;2023-02-01T00:48:14;6.40;77.00
610;DHT22;292;48.800;9.216;2023-02-01T00:50:42;6.40;77.00
610;DHT22;292;48.800;9.216;2023-02-01T00:53:09;6.40;77.10
610;DHT22;292;48.800;9.216;2023-02-01T00:55:36;6.50;77.10
610;DHT22;292;48.800;9.216;2023-02-01T00:58:05;6.50;77.00
610;DHT22;292;48.800;9.216;2023-02-01T01:00:34;6.40;77.10
610;DHT22;292;48.800;9.216;2023-02-01T01:03:03;6.40;77.30
610;DHT22;292;48.800;9.216;2023-02-01T01:05:43;6.40;77.50
610;DHT22;292;48.800;9.216;2023-02-01T01:08:10;6.50;77.30
610;DHT22;292;48.800;9.216;2023-02-01T01:10:37;6.50;77.10
610;DHT22;292;48.800;9.216;2023-02-01T01:13:04;6.50;77.30
610;DHT22;292;48.800;9.216;2023-02-01T01:15:35;6.50;77.30
610;DHT22;292;48.800;9.216;2023-02-01T01:18:03;6.50;77.10
610;DHT22;292;48.800;9.216;2023-02-01T01:20:30;6.40;77.30
610;DHT22;292;48.800;9.216;2023-02-01T01:22:57;6.50;77.10
610;DHT22;292;48.800;9.216;2023-02-01T01:25:26;6.40;77.10
610;DHT22;292;48.800;9.216;2023-02-01T01:27:53;6.40;77.50
610;DHT22;292;48.800;9.216;2023-02-01T01:30:20;6.40;77.30
610;DHT22;292;48.800;9.216;2023-02-01T01:32:47;6.40;77.30
610;DHT22;292;48.800;9.216;2023-02-01T01:35:16;6.40;77.30
610;DHT22;292;48.800;9.216;2023-02-01T01:37:43;6.40;77.30
610;DHT22;292;48.800;9.216;2023-02-01T01:40:12;6.40;77.50
610;DHT22;292;48.800;9.216;2023-02-01T01:42:40;6.40;77.50
610;DHT22;292;48.800;9.216;2023-02-01T01:45:18;6.40;77.50
610;DHT22;292;48.800;9.216;2023-02-01T01:47:50;6.40;77.70
610;DHT22;292;48.800;9.216;2023-02-01T01:50:23;6.40;77.30
610;DHT22;292;48.800;9.216;2023-02-01T01:52:52;6.40;77.30
610;DHT22;292;48.800;9.216;2023-02-01T01:55:22;6.50;77.30
610;DHT22;292;48.800;9.216;2023-02-01T01:57:55;6.50;77.10
610;DHT22;292;48.800;9.216;2023-02-01T02:00:23;6.40;77.30
610;DHT22;292;48.800;9.216;2023-02-01T02:02:54;6.50;77.30
610;DHT22;292;48.800;9.216;2023-02-01T02:05:25;6.50;77.10
610;DHT22;292;48.800;9.216;2023-02-01T02:07:57;6.50;77.10
610;DHT22;292;48.800;9.216;2023-02-01T02:10:24;6.50;77.10
610;DHT22;292;48.800;9.216;2023-02-01T02:13:12;6.60;77.00
610;DHT22;292;48.800;9.216;2023-02-01T02:15:44;6.60;77.00
610;DHT22;292;48.800;9.216;2023-02-01T02:18:17;6.60;77.00
610;DHT22;292;48.800;9.216;2023-02-01T02:21:12;6.60;77.00
610;DHT22;292;48.800;9.216;2023-02-01T02:24:01;6.70;77.00
610;DHT22;292;48.800;9.216;2023-02-01T02:30:22;6.70;76.70
610;DHT22;292;48.800;9.216;2023-02-01T02:33:23;6.70;76.70
610;DHT22;292;48.800;9.216;2023-02-01T02:36:01;6.70;76.70
610;DHT22;292;48.800;9.216;2023-02-01T02:38:35;6.70;76.70
610;DHT22;292;48.800;9.216;2023-02-01T02:41:14;6.80;76.50
610;DHT22;292;48.800;9.216;2023-02-01T02:44:09;6.80;76.40
610;DHT22;292;48.800;9.216;2023-02-01T02:47:08;6.80;76.50
610;DHT22;292;48.800;9.216;2023-02-01T02:50:02;6.80;76.40
610;DHT22;292;48.800;9.216;2023-02-01T02:52:54;6.80;76.40
610;DHT22;292;48.800;9.216;2023-02-01T02:55:42;6.80;76.00
610;DHT22;292;48.800;9.216;2023-02-01T02:58:11;6.90;76.20
610;DHT22;292;48.800;9.216;2023-02-01T03:00:57;6.90;76.20
610;DHT22;292;48.800;9.216;2023-02-01T03:03:42;6.90;76.00
610;DHT22;292;48.800;9.216;2023-02-01T03:06:36;6.90;76.00
610;DHT22;292;48.800;9.216;2023-02-01T03:09:11;6.90;76.00
610;DHT22;292;48.800;9.216;2023-02-01T03:11:41;6.90;76.00
610;DHT22;292;48.800;9.216;2023-02-01T03:14:29;6.90;76.00
610;DHT22;292;48.800;9.216;2023-02-01T03:17:00;6.90;76.20
610;DHT22;292;48.800;9.216;2023-02-01T03:19:33;6.90;76.20
610;DHT22;292;48.800;9.216;2023-02-01T03:22:06;6.90;76.20
610;DHT22;292;48.800;9.216;2023-02-01T03:24:38;6.90;76.50
610;DHT22;292;48.800;9.216;2023-02-01T03:27:10;6.90;76.50
610;DHT22;292;48.800;9.216;2023-02-01T03:29:44;6.90;76.40
610;DHT22;292;48.800;9.216;2023-02-01T03:32:12;6.90;76.50
610;DHT22;292;48.800;9.216;2023-02-01T03:34:40;6.90;76.70
610;DHT22;292;48.800;9.216;2023-02-01T03:37:10;6.80;76.50
610;DHT22;292;48.800;9.216;2023-02-01T03:39:43;6.80;76.70
610;DHT22;292;48.800;9.216;2023-02-01T03:42:16;6.90;76.80
610;DHT22;292;48.800;9.216;2023-02-01T03:44:49;6.80;76.70
610;DHT22;292;48.800;9.216;2023-02-01T03:47:20;6.80;76.80
610;DHT22;292;48.800;9.216;2023-02-01T03:49:51;6.80;76.80
610;DHT22;292;48.800;9.216;2023-02-01T03:52:25;6.80;76.70
610;DHT22;292;48.800;9.216;2023-02-01T03:54:54;6.80;77.00
610;DHT22;292;48.800;9.216;2023-02-01T03:57:26;6.90;77.10
610;DHT22;292;48.800;9.216;2023-02-01T03:59:53;6.90;77.00
610;DHT22;292;48.800;9.216;2023-02-01T04:02:20;6.90;77.00
610;DHT22;292;48.800;9.216;2023-02-01T04:04:47;7.00;77.00
610;DHT22;292;48.800;9.216;2023-02-01T04:07:14;6.90;76.70
610;DHT22;292;48.800;9.216;2023-02-01T04:09:43;6.90;76.80
610;DHT22;292;48.800;9.216;2023-02-01T04:12:10;6.90;77.10
610;DHT22;292;48.800;9.216;2023-02-01T04:14:38;6.90;77.00
610;DHT22;292;48.800;9.216;2023-02-01T04:17:05;6.90;77.00
610;DHT22;292;48.800;9.216;2023-02-01T04:19:32;7.00;77.00
610;DHT22;292;48.800;9.216;2023-02-01T04:21:59;6.90;77.00
610;DHT22;292;48.800;9.216;2023-02-01T04:24:26;6.90;77.10
610;DHT22;292;48.800;9.216;2023-02-01T04:26:54;6.90;77.30
610;DHT22;292;48.800;9.216;2023-02-01T04:29:21;7.00;77.30
610;DHT22;292;48.800;9.216;2023-02-01T04:31:48;7.00;77.30
610;DHT22;292;48.800;9.216;2023-02-01T04:34:16;7.00;77.10
610;DHT22;292;48.800;9.216;2023-02-01T04:36:43;7.00;77.10
610;DHT22;292;48.800;9.216;2023-02-01T04:39:10;7.00;77.00
610;DHT22;292;48.800;9.216;2023-02-01T04:41:37;7.00;77.10
610;DHT22;292;48.800;9.216;2023-02-01T04:44:06;6.90;77.30
610;DHT22;292;48.800;9.216;2023-02-01T04:46:34;6.90;77.30
610;DHT22;292;48.800;9.216;2023-02-01T04:49:01;6.90;77.30
610;DHT22;292;48.800;9.216;2023-02-01T04:51:28;6.90;77.50
610;DHT22;292;48.800;9.216;2023-02-01T04:53:55;6.90;77.50
610;DHT22;292;48.800;9.216;2023-02-01T04:56:22;6.90;77.50
610;DHT22;292;48.800;9.216;2023-02-01T04:58:49;6.90;77.50
610;DHT22;292;48.800;9.216;2023-02-01T05:01:18;6.90;77.70
610;DHT22;292;48.800;9.216;2023-02-01T05:03:45;6.90;77.70
610;DHT22;292;48.800;9.216;2023-02-01T05:06:12;6.90;77.70
610;DHT22;292;48.800;9.216;2023-02-01T05:08:39;6.90;77.50
610;DHT22;292;48.800;9.216;2023-02-01T05:11:08;6.90;77.50
610;DHT22;292;48.800;9.216;2023-02-01T05:13:55;6.90;77.70
610;DHT22;292;48.800;9.216;2023-02-01T05:16:23;6.90;77.50
610;DHT22;292;48.800;9.216;2023-02-01T05:18:50;6.90;77.70
610;DHT22;292;48.800;9.216;2023-02-01T05:21:16;7.00;77.50
610;DHT22;292;48.800;9.216;2023-02-01T05:23:44;7.00;77.50
610;DHT22;292;48.800;9.216;2023-02-01T05:26:25;7.00;77.40
610;DHT22;292;48.800;9.216;2023-02-01T05:28:52;7.00;77.30
610;DHT22;292;48.800;9.216;2023-02-01T05:31:19;7.10;77.30
610;DHT22;292;48.800;9.216;2023-02-01T05:33:48;7.10;77.10
610;DHT22;292;48.800;9.216;2023-02-01T05:36:15;7.10;76.80
610;DHT22;292;48.800;9.216;2023-02-01T05:38:42;7.10;76.70
610;DHT22;292;48.800;9.216;2023-02-01T05:41:09;7.10;76.50
610;DHT22;292;48.800;9.216;2023-02-01T05:43:36;7.20;76.70
610;DHT22;292;48.800;9.216;2023-02-01T05:46:04;7.20;76.40
610;DHT22;292;48.800;9.216;2023-02-01T05:48:31;7.20;76.20
610;DHT22;292;48.800;9.216;2023-02-01T05:50:59;7.20;76.20
610;DHT22;292;48.800;9.216;2023-02-01T05:53:26;7.20;76.10
610;DHT22;292;48.800;9.216;2023-02-01T05:55:54;7.10;76.20
610;DHT22;292;48.800;9.216;2023-02-01T05:58:20;7.20;76.00
610;DHT22;292;48.800;9.216;2023-02-01T06:00:47;7.20;76.10
610;DHT22;292;48.800;9.216;2023-02-01T06:03:16;7.20;76.00
610;DHT22;292;48.800;9.216;2023-02-01T06:05:43;7.20;76.10
610;DHT22;292;48.800;9.216;2023-02-01T06:08:12;7.10;76.50
610;DHT22;292;48.800;9.216;2023-02-01T06:10:39;7.10;76.70
610;DHT22;292;48.800;9.216;2023-02-01T06:13:06;7.10;77.00
610;DHT22;292;48.800;9.216;2023-02-01T06:15:34;7.10;77.00
610;DHT22;292;48.800;9.216;2023-02-01T06:18:03;7.10;77.30
610;DHT22;292;48.800;9.216;2023-02-01T06:20:30;7.10;77.30
610;DHT22;292;48.800;9.216;2023-02-01T06:22:57;7.10;77.30
610;DHT22;292;48.800;9.216;2023-02-01T06:25:26;7.10;77.30
610;DHT22;292;48.800;9.216;2023-02-01T06:27:53;7.10;77.40
610;DHT22;292;48.800;9.216;2023-02-01T06:30:20;7.10;77.40
610;DHT22;292;48.800;9.216;2023-02-01T06:32:50;7.10;77.40
610;DHT22;292;48.800;9.216;2023-02-01T06:35:19;7.10;77.40
610;DHT22;292;48.800;9.216;2023-02-01T06:37:46;7.10;77.40
610;DHT22;292;48.800;9.216;2023-02-01T06:40:13;7.10;77.50
610;DHT22;292;48.800;9.216;2023-02-01T06:42:42;7.10;77.50
610;DHT22;292;48.800;9.216;2023-02-01T06:45:10;7.10;77.40
610;DHT22;292;48.800;9.216;2023-02-01T06:47:37;7.20;77.50
610;DHT22;292;48.800;9.216;2023-02-01T06:50:05;7.20;77.40
610;DHT22;292;48.800;9.216;2023-02-01T06:52:32;7.20;77.30
610;DHT22;292;48.800;9.216;2023-02-01T06:54:59;7.20;77.30
610;DHT22;292;48.800;9.216;2023-02-01T06:57:26;7.20;77.10
610;DHT22;292;48.800;9.216;2023-02-01T06:59:57;7.20;77.10
610;DHT22;292;48.800;9.216;2023-02-01T07:02:25;7.30;77.10
610;DHT22;292;48.800;9.216;2023-02-01T07:04:52;7.30;77.10
610;DHT22;292;48.800;9.216;2023-02-01T07:07:19;7.30;76.80
610;DHT22;292;48.800;9.216;2023-02-01T07:09:48;7.30;76.80
610;DHT22;292;48.800;9.216;2023-02-01T07:12:15;7.30;76.80
610;DHT22;292;48.800;9.216;2023-02-01T07:14:43;7.40;76.70
610;DHT22;292;48.800;9.216;2023-02-01T07:17:12;7.40;76.70
610;DHT22;292;48.800;9.216;2023-02-01T07:19:39;7.50;76.50
610;DHT22;292;48.800;9.216;2023-02-01T07:22:06;7.50;76.40
610;DHT22;292;48.800;9.216;2023-02-01T07:24:33;7.60;76.00
610;DHT22;292;48.800;9.216;2023-02-01T07:27:00;7.60;75.80
610;DHT22;292;48.800;9.216;2023-02-01T07:29:27;7.60;75.80
610;DHT22;292;48.800;9.216;2023-02-01T07:31:54;7.60;75.70
610;DHT22;292;48.800;9.216;2023-02-01T07:34:23;7.60;75.50
610;DHT22;292;48.800;9.216;2023-02-01T07:36:50;7.60;75.50
610;DHT22;292;48.800;9.216;2023-02-01T07:39:16;7.70;75.40
610;DHT22;292;48.800;9.216;2023-02-01T07:41:43;7.60;75.40
610;DHT22;292;48.800;9.216;2023-02-01T07:44:11;7.70;75.40
610;DHT22;292;48.800;9.216;2023-02-01T07:46:38;7.70;75.40
610;DHT22;292;48.800;9.216;2023-02-01T07:49:05;7.70;74.80
610;DHT22;292;48.800;9.216;2023-02-01T07:51:34;7.70;74.80
610;DHT22;292;48.800;9.216;2023-02-01T07:54:01;7.70;74.50
610;DHT22;292;48.800;9.216;2023-02-01T07:56:28;7.70;74.70
610;DHT22;292;48.800;9.216;2023-02-01T07:58:55;7.70;74.50
610;DHT22;292;48.800;9.216;2023-02-01T08:01:26;7.70;74.50
610;DHT22;292;48.800;9.216;2023-02-01T08:03:55;7.70;74.50
610;DHT22;292;48.800;9.216;2023-02-01T08:06:23;7.80;74.50
610;DHT22;292;48.800;9.216;2023-02-01T08:08:53;7.80;74.50
610;DHT22;292;48.800;9.216;2023-02-01T08:11:21;7.80;74.10
610;DHT22;292;48.800;9.216;2023-02-01T08:13:49;7.90;73.70
610;DHT22;292;48.800;9.216;2023-02-01T08:16:16;7.90;73.50
610;DHT22;292;48.800;9.216;2023-02-01T08:18:44;8.00;73.20
610;DHT22;292;48.800;9.216;2023-02-01T08:21:13;8.00;72.90
610;DHT22;292;48.800;9.216;2023-02-01T08:23:41;8.00;72.60
610;DHT22;292;48.800;9.216;2023-02-01T08:26:11;8.10;72.50
610;DHT22;292;48.800;9.216;2023-02-01T08:28:42;8.10;72.40
610;DHT22;292;48.800;9.216;2023-02-01T08:31:11;8.20;72.20
610;DHT22;292;48.800;9.216;2023-02-01T08:33:40;8.20;71.90
610;DHT22;292;48.800;9.216;2023-02-01T08:36:09;8.20;71.50
610;DHT22;292;48.800;9.216;2023-02-01T08:38:37;8.20;71.20
610;DHT22;292;48.800;9.216;2023-02-01T08:41:06;8.30;70.50
610;DHT22;292;48.800;9.216;2023-02-01T08:43:35;8.30;70.30
610;DHT22;292;48.800;9.216;2023-02-01T08:46:02;8.30;70.30
610;DHT22;292;48.800;9.216;2023-02-01T08:48:29;8.30;70.50
610;DHT22;292;48.800;9.216;2023-02-01T08:50:57;8.40;70.50
610;DHT22;292;48.800;9.216;2023-02-01T08:53:24;8.40;70.50
610;DHT22;292;48.800;9.216;2023-02-01T08:55:51;8.40;70.30
610;DHT22;292;48.800;9.216;2023-02-01T08:58:18;8.50;70.00
610;DHT22;292;48.800;9.216;2023-02-01T09:00:47;8.50;69.60
610;DHT22;292;48.800;9.216;2023-02-01T09:03:15;8.60;69.20
610;DHT22;292;48.800;9.216;2023-02-01T09:05:42;8.60;68.50
610;DHT22;292;48.800;9.216;2023-02-01T09:08:10;8.70;68.20
610;DHT22;292;48.800;9.216;2023-02-01T09:10:38;8.70;68.00
610;DHT22;292;48.800;9.216;2023-02-01T09:13:06;8.70;67.60
610;DHT22;292;48.800;9.216;2023-02-01T09:15:34;8.70;67.50
610;DHT22;292;48.800;9.216;2023-02-01T09:18:03;8.70;67.20
610;DHT22;292;48.800;9.216;2023-02-01T09:20:30;8.80;66.70
610;DHT22;292;48.800;9.216;2023-02-01T09:22:57;8.80;66.20
610;DHT22;292;48.800;9.216;2023-02-01T09:25:25;8.80;65.40
610;DHT22;292;48.800;9.216;2023-02-01T09:27:53;8.80;65.10
610;DHT22;292;48.800;9.216;2023-02-01T09:30:20;8.80;65.00
610;DHT22;292;48.800;9.216;2023-02-01T09:32:47;8.80;64.70
610;DHT22;292;48.800;9.216;2023-02-01T09:35:16;8.80;64.70
610;DHT22;292;48.800;9.216;2023-02-01T09:37:44;8.80;64.70
610;DHT22;292;48.800;9.216;2023-02-01T09:40:13;8.80;64.90
610;DHT22;292;48.800;9.216;2023-02-01T09:42:57;8.80;64.60
610;DHT22;292;48.800;9.216;2023-02-01T09:45:31;8.80;64.40
610;DHT22;292;48.800;9.216;2023-02-01T09:48:08;8.80;64.40
610;DHT22;292;48.800;9.216;2023-02-01T09:50:41;8.80;64.40
610;DHT22;292;48.800;9.216;2023-02-01T09:53:15;8.90;64.10
610;DHT22;292;48.800;9.216;2023-02-01T09:55:45;8.90;64.10
610;DHT22;292;48.800;9.216;2023-02-01T09:58:15;8.90;63.80
610;DHT22;292;48.800;9.216;2023-02-01T10:00:49;8.90;63.70
610;DHT22;292;48.800;9.216;2023-02-01T10:03:17;8.90;63.70
610;DHT22;292;48.800;9.216;2023-02-01T10:06:06;8.90;63.70
610;DHT22;292;48.800;9.216;2023-02-01T10:08:52;9.00;63.00
610;DHT22;292;48.800;9.216;2023-02-01T10:11:30;9.00;62.80
610;DHT22;292;48.800;9.216;2023-02-01T10:14:20;9.00;62.50
610;DHT22;292;48.800;9.216;2023-02-01T10:16:56;9.00;62.30
610;DHT22;292;48.800;9.216;2023-02-01T10:19:38;9.00;62.00
610;DHT22;292;48.800;9.216;2023-02-01T10:22:10;9.00;62.30
610;DHT22;292;48.800;9.216;2023-02-01T10:24:40;9.00;62.00
610;DHT22;292;48.800;9.216;2023-02-01T10:27:13;9.00;61.40
610;DHT22;292;48.800;9.216;2023-02-01T10:29:42;9.00;61.50
610;DHT22;292;48.800;9.216;2023-02-01T10:32:13;9.00;61.40
610;DHT22;292;48.800;9.216;2023-02-01T10:34:42;9.00;61.00
610;DHT22;292;48.800;9.216;2023-02-01T10:37:31;9.00;61.00
610;DHT22;292;48.800;9.216;2023-02-01T10:40:02;9.10;61.00
610;DHT22;292;48.800;9.216;2023-02-01T10:42:35;9.10;60.50
610;DHT22;292;48.800;9.216;2023-02-01T10:45:03;9.10;60.40
610;DHT22;292;48.800;9.216;2023-02-01T10:47:31;9.10;60.40
610;DHT22;292;48.800;9.216;2023-02-01T10:50:05;9.10;60.00
610;DHT22;292;48.800;9.216;2023-02-01T10:52:45;9.10;60.10
610;DHT22;292;48.800;9.216;2023-02-01T10:55:32;9.20;60.00
610;DHT22;292;48.800;9.216;2023-02-01T10:58:00;9.20;60.00
610;DHT22;292;48.800;9.216;2023-02-01T11:00:43;9.20;59.60
610;DHT22;292;48.800;9.216;2023-02-01T11:03:30;9.20;59.60
610;DHT22;292;48.800;9.216;2023-02-01T11:05:59;9.20;59.40
610;DHT22;292;48.800;9.216;2023-02-01T11:08:28;9.20;59.00
610;DHT22;292;48.800;9.216;2023-02-01T11:11:04;9.20;58.80
610;DHT22;292;48.800;9.216;2023-02-01T11:13:33;9.20;58.60
610;DHT22;292;48.800;9.216;2023-02-01T11:16:04;9.20;58.80
610;DHT22;292;48.800;9.216;2023-02-01T11:18:36;9.20;58.90
610;DHT22;292;48.800;9.216;2023-02-01T11:21:04;9.20;59.00
610;DHT22;292;48.800;9.216;2023-02-01T11:23:33;9.20;58.60
610;DHT22;292;48.800;9.216;2023-02-01T11:26:10;9.20;58.40
610;DHT22;292;48.800;9.216;2023-02-01T11:28:40;9.20;58.50
610;DHT22;292;48.800;9.216;2023-02-01T11:31:09;9.20;57.80
610;DHT22;292;48.800;9.216;2023-02-01T11:33:38;9.20;57.60
610;DHT22;292;48.800;9.216;2023-02-01T11:36:13;9.10;57.70
610;DHT22;292;48.800;9.216;2023-02-01T11:38:51;9.10;57.70
610;DHT22;292;48.800;9.216;2023-02-01T11:41:26;9.10;57.80
610;DHT22;292;48.800;9.216;2023-02-01T11:43:55;9.10;58.10
610;DHT22;292;48.800;9.216;2023-02-01T11:46:28;9.10;58.20
610;DHT22;292;48.800;9.216;2023-02-01T11:48:57;9.20;58.00
610;DHT22;292;48.800;9.216;2023-02-01T11:51:47;9.20;57.80
610;DHT22;292;48.800;9.216;2023-02-01T11:54:26;9.20;57.70
610;DHT22;292;48.800;9.216;2023-02-01T11:57:11;9.20;57.30
610;DHT22;292;48.800;9.216;2023-02-01T11:59:54;9.20;57.30
610;DHT22;292;48.800;9.216;2023-02-01T12:03:07;9.20;56.40
610;DHT22;292;48.800;9.216;2023-02-01T12:05:50;9.20;56.60
610;DHT22;292;48.800;9.216;2023-02-01T12:08:32;9.20;56.40
610;DHT22;292;48.800;9.216;2023-02-01T12:11:21;9.20;56.50
610;DHT22;292;48.800;9.216;2023-02-01T12:13:58;9.30;56.20
610;DHT22;292;48.800;9.216;2023-02-01T12:16:31;9.30;55.60
610;DHT22;292;48.800;9.216;2023-02-01T12:19:29;9.30;55.30
610;DHT22;292;48.800;9.216;2023-02-01T12:22:08;9.20;55.40
610;DHT22;292;48.800;9.216;2023-02-01T12:25:04;9.20;55.70
610;DHT22;292;48.800;9.216;2023-02-01T12:28:19;9.20;55.40
610;DHT22;292;48.800;9.216;2023-02-01T12:31:10;9.20;55.40
610;DHT22;292;48.800;9.216;2023-02-01T12:33:49;9.20;55.60
610;DHT22;292;48.800;9.216;2023-02-01T12:36:24;9.20;55.70
610;DHT22;292;48.800;9.216;2023-02-01T12:38:56;9.20;55.70
610;DHT22;292;48.800;9.216;2023-02-01T12:41:38;9.20;55.70
610;DHT22;292;48.800;9.216;2023-02-01T12:44:16;9.20;55.60
610;DHT22;292;48.800;9.216;2023-02-01T12:46:46;9.20;55.40
610;DHT22;292;48.800;9.216;2023-02-01T12:49:18;9.20;55.30
610;DHT22;292;48.800;9.216;2023-02-01T12:51:52;9.20;55.30
610;DHT22;292;48.800;9.216;2023-02-01T12:54:27;9.20;55.70
610;DHT22;292;48.800;9.216;2023-02-01T12:56:58;9.20;55.80
610;DHT22;292;48.800;9.216;2023-02-01T12:59:39;9.20;55.80
610;DHT22;292;48.800;9.216;2023-02-01T13:02:14;9.20;56.00
610;DHT22;292;48.800;9.216;2023-02-01T13:04:51;9.20;56.10
610;DHT22;292;48.800;9.216;2023-02-01T13:07:23;9.20;56.40
610;DHT22;292;48.800;9.216;2023-02-01T13:09:56;9.20;56.80
610;DHT22;292;48.800;9.216;2023-02-01T13:12:31;9.10;57.00
610;DHT22;292;48.800;9.216;2023-02-01T13:15:13;9.10;57.40
610;DHT22;292;48.800;9.216;2023-02-01T13:17:42;9.10;57.80
610;DHT22;292;48.800;9.216;2023-02-01T13:20:18;9.00;58.10
610;DHT22;292;48.800;9.216;2023-02-01T13:22:50;9.00;58.80
610;DHT22;292;48.800;9.216;2023-02-01T13:25:26;9.00;58.80
610;DHT22;292;48.800;9.216;2023-02-01T13:27:56;9.00;58.60
610;DHT22;292;48.800;9.216;2023-02-01T13:30:33;9.00;58.50
610;DHT22;292;48.800;9.216;2023-02-01T13:33:15;9.00;58.10
610;DHT22;292;48.800;9.216;2023-02-01T13:35:54;9.00;58.10
610;DHT22;292;48.800;9.216;2023-02-01T13:39:03;9.00;58.10
610;DHT22;292;48.800;9.216;2023-02-01T13:41:39;9.00;58.20
610;DHT22;292;48.800;9.216;2023-02-01T13:44:12;9.00;58.10
610;DHT22;292;48.800;9.216;2023-02-01T13:46:48;9.00;58.10
610;DHT22;292;48.800;9.216;2023-02-01T13:49:36;9.00;58.00
610;DHT22;292;48.800;9.216;2023-02-01T13:52:26;9.00;58.00
610;DHT22;292;48.800;9.216;2023-02-01T13:55:23;9.00;58.00
610;DHT22;292;48.800;9.216;2023-02-01T13:57:58;9.00;58.80
610;DHT22;292;48.800;9.216;2023-02-01T14:00:29;8.90;59.60
610;DHT22;292;48.800;9.216;2023-02-01T14:03:23;8.80;60.20
610;DHT22;292;48.800;9.216;2023-02-01T14:06:41;8.80;60.50
610;DHT22;292;48.800;9.216;2023-02-01T14:09:16;8.80;60.80
610;DHT22;292;48.800;9.216;2023-02-01T14:11:47;8.70;60.80
610;DHT22;292;48.800;9.216;2023-02-01T14:14:45;8.70;60.80
610;DHT22;292;48.800;9.216;2023-02-01T14:17:36;8.70;61.10
610;DHT22;292;48.800;9.216;2023-02-01T14:23:41;8.70;61.10
610;DHT22;292;48.800;9.216;2023-02-01T14:26:20;8.80;61.00
610;DHT22;292;48.800;9.216;2023-02-01T14:28:58;8.80;60.80
610;DHT22;292;48.800;9.216;2023-02-01T14:31:52;8.80;60.20
610;DHT22;292;48.800;9.216;2023-02-01T14:34:30;8.80;59.70
610;DHT22;292;48.800;9.216;2023-02-01T14:37:00;8.90;59.30
610;DHT22;292;48.800;9.216;2023-02-01T14:39:36;8.90;59.00
610;DHT22;292;48.800;9.216;2023-02-01T14:42:19;8.90;59.00
610;DHT22;292;48.800;9.216;2023-02-01T14:44:48;8.90;59.20
610;DHT22;292;48.800;9.216;2023-02-01T14:47:31;8.90;58.80
610;DHT22;292;48.800;9.216;2023-02-01T14:53:16;8.90;58.50
610;DHT22;292;48.800;9.216;2023-02-01T14:55:50;8.90;58.80
610;DHT22;292;48.800;9.216;2023-02-01T14:58:29;8.80;58.90
610;DHT22;292;48.800;9.216;2023-02-01T15:01:01;8.80;59.20
610;DHT22;292;48.800;9.216;2023-02-01T15:03:43;8.80;59.40
610;DHT22;292;48.800;9.216;2023-02-01T15:06:30;8.80;59.80
610;DHT22;292;48.800;9.216;2023-02-01T15:09:00;8.80;60.10
610;DHT22;292;48.800;9.216;2023-02-01T15:11:30;8.80;60.00
610;DHT22;292;48.800;9.216;2023-02-01T15:13:56;8.80;59.70
610;DHT22;292;48.800;9.216;2023-02-01T15:16:26;8.80;59.40
610;DHT22;292;48.800;9.216;2023-02-01T15:19:10;8.80;59.20
610;DHT22;292;48.800;9.216;2023-02-01T15:21:45;8.80;59.20
610;DHT22;292;48.800;9.216;2023-02-01T15:24:14;8.70;59.20
610;DHT22;292;48.800;9.216;2023-02-01T15:26:43;8.70;59.60
610;DHT22;292;48.800;9.216;2023-02-01T15:29:12;8.80;59.60
610;DHT22;292;48.800;9.216;2023-02-01T15:31:41;8.80;59.60
610;DHT22;292;48.800;9.216;2023-02-01T15:34:18;8.80;59.30
610;DHT22;292;48.800;9.216;2023-02-01T15:38:17;8.80;59.20
610;DHT22;292;48.800;9.216;2023-02-01T15:43:40;8.80;59.20
610;DHT22;292;48.800;9.216;2023-02-01T15:46:10;8.80;59.20
610;DHT22;292;48.800;9.216;2023-02-01T15:48:43;8.80;59.40
610;DHT22;292;48.800;9.216;2023-02-01T15:51:16;8.80;59.30
610;DHT22;292;48.800;9.216;2023-02-01T15:53:49;8.80;59.20
610;DHT22;292;48.800;9.216;2023-02-01T15:56:25;8.80;59.20
610;DHT22;292;48.800;9.216;2023-02-01T15:58:57;8.80;59.00
610;DHT22;292;48.800;9.216;2023-02-01T16:01:25;8.80;58.90
610;DHT22;292;48.800;9.216;2023-02-01T16:04:03;8.90;59.00
610;DHT22;292;48.800;9.216;2023-02-01T16:06:32;8.90;58.80
610;DHT22;292;48.800;9.216;2023-02-01T16:09:07;8.90;58.10
610;DHT22;292;48.800;9.216;2023-02-01T16:11:41;8.90;58.00
610;DHT22;292;48.800;9.216;2023-02-01T16:14:10;8.90;58.00
610;DHT22;292;48.800;9.216;2023-02-01T16:16:43;8.90;57.80
610;DHT22;292;48.800;9.216;2023-02-01T16:19:10;8.90;57.80
610;DHT22;292;48.800;9.216;2023-02-01T16:21:37;8.90;58.00
610;DHT22;292;48.800;9.216;2023-02-01T16:24:05;8.90;57.70
610;DHT22;292;48.800;9.216;2023-02-01T16:26:33;9.00;57.70
610;DHT22;292;48.800;9.216;2023-02-01T16:29:00;9.00;57.40
610;DHT22;292;48.800;9.216;2023-02-01T16:31:35;9.00;57.00
610;DHT22;292;48.800;9.216;2023-02-01T16:34:03;9.00;56.90
610;DHT22;292;48.800;9.216;2023-02-01T16:36:31;9.00;56.80
610;DHT22;292;48.800;9.216;2023-02-01T16:38:59;9.00;56.60
610;DHT22;292;48.800;9.216;2023-02-01T16:41:28;9.00;56.60
610;DHT22;292;48.800;9.216;2023-02-01T16:43:56;9.00;56.20
610;DHT22;292;48.800;9.216;2023-02-01T16:46:25;9.00;56.40
610;DHT22;292;48.800;9.216;2023-02-01T16:48:56;9.00;56.50
610;DHT22;292;48.800;9.216;2023-02-01T16:51:25;9.00;56.50
610;DHT22;292;48.800;9.216;2023-02-01T16:53:53;9.00;56.50
610;DHT22;292;48.800;9.216;2023-02-01T16:56:22;9.00;57.00
610;DHT22;292;48.800;9.216;2023-02-01T16:58:49;9.00;56.90
610;DHT22;292;48.800;9.216;2023-02-01T17:01:19;9.00;56.80
610;DHT22;292;48.800;9.216;2023-02-01T17:03:46;9.00;56.60
610;DHT22;292;48.800;9.216;2023-02-01T17:06:19;9.00;56.50
610;DHT22;292;48.800;9.216;2023-02-01T17:08:50;9.00;56.50
610;DHT22;292;48.800;9.216;2023-02-01T17:11:18;9.00;56.40
610;DHT22;292;48.800;9.216;2023-02-01T17:13:46;9.00;56.40
610;DHT22;292;48.800;9.216;2023-02-01T17:16:24;8.90;56.50
610;DHT22;292;48.800;9.216;2023-02-01T17:18:55;8.90;56.40
610;DHT22;292;48.800;9.216;2023-02-01T17:21:27;8.90;56.40
610;DHT22;292;48.800;9.216;2023-02-01T17:23:56;8.90;56.40
610;DHT22;292;48.800;9.216;2023-02-01T17:26:27;8.90;56.50
610;DHT22;292;48.800;9.216;2023-02-01T17:28:54;8.90;56.50
610;DHT22;292;48.800;9.216;2023-02-01T17:31:22;8.90;56.40
610;DHT22;292;48.800;9.216;2023-02-01T17:33:50;8.90;56.50
610;DHT22;292;48.800;9.216;2023-02-01T17:36:17;8.90;56.60
610;DHT22;292;48.800;9.216;2023-02-01T17:38:46;8.90;56.50
610;DHT22;292;48.800;9.216;2023-02-01T17:41:13;8.90;56.40